sensor_id;sensor_type;location;lat;lon;timestamp;temperature;humidity
15564;DHT22;7883;52.554;13.364;2023-04-03T00:00:18;2.50;99.90
15564;DHT22;7883;52.554;13.364;2023-04-03T00:02:45;2.60;99.90
15564;DHT22;7883;52.554;13.364;2023-04-03T00:05:12;2.50;99.90
15564;DHT22;7883;52.554;13.364;2023-04-03T00:07:40;2.50;99.90
15564;DHT22;7883;52.554;13.364;2023-04-03T00:10:08;2.50;99.90
15564;DHT22;7883;52.554;13.364;2023-04-03T00:12:35;2.50;99.90
15564;DHT22;7883;52.554;13.364;2023-04-03T00:15:06;2.50;99.90
15564;DHT22;7883;52.554;13.364;2023-04-03T00:17:33;2.50;99.90
15564;DHT22;7883;52.554;13.364;2023-04-03T00:20:01;2.50;99.90
15564;DHT22;7883;52.554;13.364;2023-04-03T00:22:27;2.40;99.90
15564;DHT22;7883;52.554;13.364;2023-04-03T00:24:55;2.40;99.90
15564;DHT22;7883;52.554;13.364;2023-04-03T00:27:22;2.30;99.90
15564;DHT22;7883;52.554;13.364;2023-04-03T00:29:49;2.40;99.90
15564;DHT22;7883;52.554;13.364;2023-04-03T00:32:18;2.40;99.90
15564;DHT22;7883;52.554;13.364;2023-04-03T00:34:48;2.30;99.90
15564;DHT22;7883;52.554;13.364;2023-04-03T00:37:14;2.30;99.90
15564;DHT22;7883;52.554;13.364;2023-04-03T00:39:41;2.30;99.90
15564;DHT22;7883;52.554;13.364;2023-04-03T00:42:08;2.20;99.90
15564;DHT22;7883;52.554;13.364;2023-04-03T00:47:42;2.40;99.90
15564;DHT22;7883;52.554;13.364;2023-04-03T00:50:09;2.30;99.90
15564;DHT22;7883;52.554;13.364;2023-04-03T00:52:37;2.20;99.90
15564;DHT22;7883;52.554;13.364;2023-04-03T00:55:08;2.20;99.90
15564;DHT22;7883;52.554;13.364;2023-04-03T00:57:36;2.20;99.90
15564;DHT22;7883;52.554;13.364;2023-04-03T01:00:09;2.10;99.90
15564;DHT22;7883;52.554;13.364;2023-04-03T01:02:38;2.10;99.90
15564;DHT22;7883;52.554;13.364;2023-04-03T01:05:09;2.20;99.90
15564;DHT22;7883;52.554;13.364;2023-04-03T01:07:39;2.20;99.90
15564;DHT22;7883;52.554;13.364;2023-04-03T01:10:08;2.20;99.90
15564;DHT22;7883;52.554;13.364;2023-04-03T01:12:38;2.20;99.90
15564;DHT22;7883;52.554;13.364;2023-04-03T01:15:07;2.00;99.90
15564;DHT22;7883;52.554;13.364;2023-04-03T01:17:38;2.10;99.90
15564;DHT22;7883;52.554;13.364;2023-04-03T01:20:30;2.10;99.90
15564;DHT22;7883;52.554;13.364;2023-04-03T01:23:10;2.00;99.90
15564;DHT22;7883;52.554;13.364;2023-04-03T01:25:41;2.10;99.90
15564;DHT22;7883;52.554;13.364;2023-04-03T01:28:12;2.10;99.90
15564;DHT22;7883;52.554;13.364;2023-04-03T01:30:45;2.00;99.90
15564;DHT22;7883;52.554;13.364;2023-04-03T01:33:16;2.00;99.90
15564;DHT22;7883;52.554;13.364;2023-04-03T01:35:44;2.10;99.90
15564;DHT22;7883;52.554;13.364;2023-04-03T01:38:11;2.10;99.90
15564;DHT22;7883;52.554;13.364;2023-04-03T01:40:38;2.10;99.90
15564;DHT22;7883;52.554;13.364;2023-04-03T01:43:05;2.10;99.90
15564;DHT22;7883;52.554;13.364;2023-04-03T01:45:32;2.10;99.90
15564;DHT22;7883;52.554;13.364;2023-04-03T01:47:59;2.00;99.90
15564;DHT22;7883;52.554;13.364;2023-04-03T01:50:29;2.00;99.90
15564;DHT22;7883;52.554;13.364;2023-04-03T01:52:58;2.00;99.90
15564;DHT22;7883;52.554;13.364;2023-04-03T01:55:25;1.90;99.90
15564;DHT22;7883;52.554;13.364;2023-04-03T01:57:53;1.90;99.90
15564;DHT22;7883;52.554;13.364;2023-04-03T02:00:20;1.90;99.90
15564;DHT22;7883;52.554;13.364;2023-04-03T02:02:49;1.80;99.90
15564;DHT22;7883;52.554;13.364;2023-04-03T02:05:16;1.90;99.90
15564;DHT22;7883;52.554;13.364;2023-04-03T02:07:45;1.80;99.90
15564;DHT22;7883;52.554;13.364;2023-04-03T02:10:14;1.80;99.90
15564;DHT22;7883;52.554;13.364;2023-04-03T02:12:41;1.80;99.90
15564;DHT22;7883;52.554;13.364;2023-04-03T02:15:09;1.80;99.90
15564;DHT22;7883;52.554;13.364;2023-04-03T02:17:37;1.80;99.90
15564;DHT22;7883;52.554;13.364;2023-04-03T02:20:05;1.70;99.90
15564;DHT22;7883;52.554;13.364;2023-04-03T02:22:32;1.70;99.90
15564;DHT22;7883;52.554;13.364;2023-04-03T02:25:01;1.80;99.90
15564;DHT22;7883;52.554;13.364;2023-04-03T02:27:29;1.80;99.90
15564;DHT22;7883;52.554;13.364;2023-04-03T02:29:57;1.70;99.90
15564;DHT22;7883;52.554;13.364;2023-04-03T02:32:24;1.70;99.90
15564;DHT22;7883;52.554;13.364;2023-04-03T02:34:51;1.70;99.90
15564;DHT22;7883;52.554;13.364;2023-04-03T02:37:18;1.60;99.90
15564;DHT22;7883;52.554;13.364;2023-04-03T02:39:46;1.60;99.90
15564;DHT22;7883;52.554;13.364;2023-04-03T02:42:15;1.60;99.90
15564;DHT22;7883;52.554;13.364;2023-04-03T02:44:44;1.60;99.90
15564;DHT22;7883;52.554;13.364;2023-04-03T02:47:12;1.50;99.90
15564;DHT22;7883;52.554;13.364;2023-04-03T02:49:39;1.50;99.90
15564;DHT22;7883;52.554;13.364;2023-04-03T02:52:07;1.50;99.90
15564;DHT22;7883;52.554;13.364;2023-04-03T02:54:34;1.50;99.90
15564;DHT22;7883;52.554;13.364;2023-04-03T02:57:02;1.40;99.90
15564;DHT22;7883;52.554;13.364;2023-04-03T02:59:32;1.40;99.90
15564;DHT22;7883;52.554;13.364;2023-04-03T03:02:00;1.40;99.90
15564;DHT22;7883;52.554;13.364;2023-04-03T03:04:27;1.40;99.90
15564;DHT22;7883;52.554;13.364;2023-04-03T03:06:54;1.30;99.90
15564;DHT22;7883;52.554;13.364;2023-04-03T03:09:22;1.40;99.90
15564;DHT22;7883;52.554;13.364;2023-04-03T03:11:49;1.40;99.90
15564;DHT22;7883;52.554;13.364;2023-04-03T03:14:18;1.40;99.90
15564;DHT22;7883;52.554;13.364;2023-04-03T03:16:47;1.40;99.90
15564;DHT22;7883;52.554;13.364;2023-04-03T03:19:15;1.40;99.90
15564;DHT22;7883;52.554;13.364;2023-04-03T03:21:44;1.30;99.90
15564;DHT22;7883;52.554;13.364;2023-04-03T03:24:13;1.30;99.90
15564;DHT22;7883;52.554;13.364;2023-04-03T03:26:41;1.40;99.90
15564;DHT22;7883;52.554;13.364;2023-04-03T03:29:08;1.30;99.90
15564;DHT22;7883;52.554;13.364;2023-04-03T03:31:35;1.30;99.90
15564;DHT22;7883;52.554;13.364;2023-04-03T03:34:06;1.20;99.90
15564;DHT22;7883;52.554;13.364;2023-04-03T03:36:33;1.20;99.90
15564;DHT22;7883;52.554;13.364;2023-04-03T03:39:02;1.20;99.90
15564;DHT22;7883;52.554;13.364;2023-04-03T03:41:29;1.20;99.90
15564;DHT22;7883;52.554;13.364;2023-04-03T03:43:56;1.20;99.90
15564;DHT22;7883;52.554;13.364;2023-04-03T03:46:23;1.20;99.90
15564;DHT22;7883;52.554;13.364;2023-04-03T03:48:51;1.20;99.90
15564;DHT22;7883;52.554;13.364;2023-04-03T03:51:19;1.20;99.90
15564;DHT22;7883;52.554;13.364;2023-04-03T03:53:49;1.20;99.90
15564;DHT22;7883;52.554;13.364;2023-04-03T03:56:17;1.20;99.90
15564;DHT22;7883;52.554;13.364;2023-04-03T03:58:44;1.20;99.90
15564;DHT22;7883;52.554;13.364;2023-04-03T04:01:12;1.20;99.90
15564;DHT22;7883;52.554;13.364;2023-04-03T04:03:39;1.20;99.90
15564;DHT22;7883;52.554;13.364;2023-04-03T04:06:06;1.20;99.90
15564;DHT22;7883;52.554;13.364;2023-04-03T04:08:35;1.20;99.90
15564;DHT22;7883;52.554;13.364;2023-04-03T04:11:02;1.10;99.90
15564;DHT22;7883;52.554;13.364;2023-04-03T04:13:30;1.10;99.90
15564;DHT22;7883;52.554;13.364;2023-04-03T04:15:58;1.10;99.90
15564;DHT22;7883;52.554;13.364;2023-04-03T04:18:25;1.10;99.90
15564;DHT22;7883;52.554;13.364;2023-04-03T04:20:52;1.10;99.90
15564;DHT22;7883;52.554;13.364;2023-04-03T04:23:20;1.10;99.90
15564;DHT22;7883;52.554;13.364;2023-04-03T04:25:50;1.10;99.90
15564;DHT22;7883;52.554;13.364;2023-04-03T04:28:19;1.00;99.90
15564;DHT22;7883;52.554;13.364;2023-04-03T04:30:46;1.00;99.90
15564;DHT22;7883;52.554;13.364;2023-04-03T04:33:13;1.00;99.90
15564;DHT22;7883;52.554;13.364;2023-04-03T04:35:42;1.10;99.90
15564;DHT22;7883;52.554;13.364;2023-04-03T04:38:09;1.10;99.90
15564;DHT22;7883;52.554;13.364;2023-04-03T04:40:36;1.00;99.90
15564;DHT22;7883;52.554;13.364;2023-04-03T04:43:06;1.00;99.90
15564;DHT22;7883;52.554;13.364;2023-04-03T04:45:33;1.10;99.90
15564;DHT22;7883;52.554;13.364;2023-04-03T04:48:02;1.00;99.90
15564;DHT22;7883;52.554;13.364;2023-04-03T04:50:29;1.00;99.90
15564;DHT22;7883;52.554;13.364;2023-04-03T04:52:56;1.10;99.90
15564;DHT22;7883;52.554;13.364;2023-04-03T04:55:23;1.10;99.90
15564;DHT22;7883;52.554;13.364;2023-04-03T04:57:50;1.10;99.90
15564;DHT22;7883;52.554;13.364;2023-04-03T05:00:21;1.20;99.90
15564;DHT22;7883;52.554;13.364;2023-04-03T05:02:49;1.20;99.90
15564;DHT22;7883;52.554;13.364;2023-04-03T05:05:16;1.70;99.90
15564;DHT22;7883;52.554;13.364;2023-04-03T05:07:43;2.70;99.90
15564;DHT22;7883;52.554;13.364;2023-04-03T05:10:10;4.00;99.90
15564;DHT22;7883;52.554;13.364;2023-04-03T05:12:38;4.80;99.90
15564;DHT22;7883;52.554;13.364;2023-04-03T05:15:06;5.30;99.90
15564;DHT22;7883;52.554;13.364;2023-04-03T05:17:36;5.60;99.90
15564;DHT22;7883;52.554;13.364;2023-04-03T05:20:04;4.40;99.90
15564;DHT22;7883;52.554;13.364;2023-04-03T05:22:33;3.50;99.90
15564;DHT22;7883;52.554;13.364;2023-04-03T05:25:00;2.80;99.90
15564;DHT22;7883;52.554;13.364;2023-04-03T05:27:28;2.40;99.90
15564;DHT22;7883;52.554;13.364;2023-04-03T05:29:55;2.20;99.90
15564;DHT22;7883;52.554;13.364;2023-04-03T05:32:23;2.00;99.90
15564;DHT22;7883;52.554;13.364;2023-04-03T05:34:53;2.00;99.90
15564;DHT22;7883;52.554;13.364;2023-04-03T05:37:21;1.90;99.90
15564;DHT22;7883;52.554;13.364;2023-04-03T05:39:48;1.80;99.90
15564;DHT22;7883;52.554;13.364;2023-04-03T05:42:15;1.70;99.90
15564;DHT22;7883;52.554;13.364;2023-04-03T05:44:43;1.80;99.90
15564;DHT22;7883;52.554;13.364;2023-04-03T05:47:12;1.80;99.90
15564;DHT22;7883;52.554;13.364;2023-04-03T05:49:41;1.80;99.90
15564;DHT22;7883;52.554;13.364;2023-04-03T05:52:18;1.90;99.90
15564;DHT22;7883;52.554;13.364;2023-04-03T05:54:46;1.80;99.90
15564;DHT22;7883;52.554;13.364;2023-04-03T05:57:15;1.90;99.90
15564;DHT22;7883;52.554;13.364;2023-04-03T05:59:42;1.80;99.90
15564;DHT22;7883;52.554;13.364;2023-04-03T06:02:12;1.80;99.90
15564;DHT22;7883;52.554;13.364;2023-04-03T06:04:40;1.70;99.90
15564;DHT22;7883;52.554;13.364;2023-04-03T06:07:12;1.80;99.90
15564;DHT22;7883;52.554;13.364;2023-04-03T06:09:42;1.90;99.90
15564;DHT22;7883;52.554;13.364;2023-04-03T06:12:09;1.90;99.90
15564;DHT22;7883;52.554;13.364;2023-04-03T06:14:38;1.90;99.90
15564;DHT22;7883;52.554;13.364;2023-04-03T06:17:06;2.00;99.90
15564;DHT22;7883;52.554;13.364;2023-04-03T06:19:34;2.10;99.90
15564;DHT22;7883;52.554;13.364;2023-04-03T06:22:01;2.00;99.90
15564;DHT22;7883;52.554;13.364;2023-04-03T06:24:30;2.10;99.90
15564;DHT22;7883;52.554;13.364;2023-04-03T06:26:57;2.20;99.90
15564;DHT22;7883;52.554;13.364;2023-04-03T06:29:24;2.20;99.90
15564;DHT22;7883;52.554;13.364;2023-04-03T06:31:52;2.20;99.90
15564;DHT22;7883;52.554;13.364;2023-04-03T06:34:19;2.30;99.90
15564;DHT22;7883;52.554;13.364;2023-04-03T06:36:47;2.40;99.90
15564;DHT22;7883;52.554;13.364;2023-04-03T06:39:16;2.50;99.90
15564;DHT22;7883;52.554;13.364;2023-04-03T06:41:44;2.40;99.90
15564;DHT22;7883;52.554;13.364;2023-04-03T06:44:12;2.50;99.90
15564;DHT22;7883;52.554;13.364;2023-04-03T06:46:41;2.50;99.90
15564;DHT22;7883;52.554;13.364;2023-04-03T06:49:10;2.60;99.90
15564;DHT22;7883;52.554;13.364;2023-04-03T06:51:38;2.70;99.90
15564;DHT22;7883;52.554;13.364;2023-04-03T06:54:06;2.70;99.90
15564;DHT22;7883;52.554;13.364;2023-04-03T06:56:33;2.70;99.90
15564;DHT22;7883;52.554;13.364;2023-04-03T06:59:06;2.70;99.90
15564;DHT22;7883;52.554;13.364;2023-04-03T07:01:34;2.80;99.90
15564;DHT22;7883;52.554;13.364;2023-04-03T07:04:01;3.00;99.90
15564;DHT22;7883;52.554;13.364;2023-04-03T07:06:29;3.10;99.90
15564;DHT22;7883;52.554;13.364;2023-04-03T07:08:57;3.20;99.90
15564;DHT22;7883;52.554;13.364;2023-04-03T07:11:24;3.30;99.90
15564;DHT22;7883;52.554;13.364;2023-04-03T07:13:52;3.40;99.90
15564;DHT22;7883;52.554;13.364;2023-04-03T07:16:20;3.80;99.90
15564;DHT22;7883;52.554;13.364;2023-04-03T07:18:47;4.00;99.90
15564;DHT22;7883;52.554;13.364;2023-04-03T07:21:14;4.00;99.90
15564;DHT22;7883;52.554;13.364;2023-04-03T07:23:42;4.00;99.90
15564;DHT22;7883;52.554;13.364;2023-04-03T07:26:09;3.80;99.90
15564;DHT22;7883;52.554;13.364;2023-04-03T07:28:36;3.90;99.90
15564;DHT22;7883;52.554;13.364;2023-04-03T07:31:05;3.80;99.90
15564;DHT22;7883;52.554;13.364;2023-04-03T07:33:35;3.90;99.90
15564;DHT22;7883;52.554;13.364;2023-04-03T07:36:05;3.90;99.90
15564;DHT22;7883;52.554;13.364;2023-04-03T07:38:36;3.90;99.90
15564;DHT22;7883;52.554;13.364;2023-04-03T07:41:04;4.10;99.90
15564;DHT22;7883;52.554;13.364;2023-04-03T07:43:33;4.30;99.90
15564;DHT22;7883;52.554;13.364;2023-04-03T07:46:02;4.30;99.90
15564;DHT22;7883;52.554;13.364;2023-04-03T07:48:31;4.10;99.90
15564;DHT22;7883;52.554;13.364;2023-04-03T07:51:01;4.00;99.90
15564;DHT22;7883;52.554;13.364;2023-04-03T07:53:29;4.10;99.90
15564;DHT22;7883;52.554;13.364;2023-04-03T07:55:57;4.20;99.90
15564;DHT22;7883;52.554;13.364;2023-04-03T07:58:24;4.10;99.90
15564;DHT22;7883;52.554;13.364;2023-04-03T08:00:55;4.00;99.90
15564;DHT22;7883;52.554;13.364;2023-04-03T08:03:22;4.10;99.90
15564;DHT22;7883;52.554;13.364;2023-04-03T08:05:50;4.30;99.90
15564;DHT22;7883;52.554;13.364;2023-04-03T08:08:21;4.50;99.90
15564;DHT22;7883;52.554;13.364;2023-04-03T08:10:50;4.60;99.90
15564;DHT22;7883;52.554;13.364;2023-04-03T08:13:19;4.80;99.90
15564;DHT22;7883;52.554;13.364;2023-04-03T08:15:48;4.90;99.90
15564;DHT22;7883;52.554;13.364;2023-04-03T08:18:15;5.10;99.90
15564;DHT22;7883;52.554;13.364;2023-04-03T08:20:42;4.80;99.90
15564;DHT22;7883;52.554;13.364;2023-04-03T08:23:11;4.60;99.90
15564;DHT22;7883;52.554;13.364;2023-04-03T08:25:44;4.50;99.90
15564;DHT22;7883;52.554;13.364;2023-04-03T08:28:12;4.40;99.90
15564;DHT22;7883;52.554;13.364;2023-04-03T08:30:41;4.50;99.90
15564;DHT22;7883;52.554;13.364;2023-04-03T08:33:10;4.60;99.90
15564;DHT22;7883;52.554;13.364;2023-04-03T08:35:40;4.60;99.90
15564;DHT22;7883;52.554;13.364;2023-04-03T08:38:09;4.80;99.90
15564;DHT22;7883;52.554;13.364;2023-04-03T08:40:37;4.70;99.90
15564;DHT22;7883;52.554;13.364;2023-04-03T08:43:22;4.50;99.90
15564;DHT22;7883;52.554;13.364;2023-04-03T08:45:56;4.70;99.90
15564;DHT22;7883;52.554;13.364;2023-04-03T08:48:26;4.50;99.90
15564;DHT22;7883;52.554;13.364;2023-04-03T08:50:57;4.40;99.90
15564;DHT22;7883;52.554;13.364;2023-04-03T08:53:28;4.50;99.90
15564;DHT22;7883;52.554;13.364;2023-04-03T08:55:58;4.70;99.90
15564;DHT22;7883;52.554;13.364;2023-04-03T08:58:35;4.70;99.90
15564;DHT22;7883;52.554;13.364;2023-04-03T09:01:17;4.60;99.90
15564;DHT22;7883;52.554;13.364;2023-04-03T09:03:45;4.70;99.90
15564;DHT22;7883;52.554;13.364;2023-04-03T09:06:14;4.60;99.90
15564;DHT22;7883;52.554;13.364;2023-04-03T09:08:45;4.70;99.90
15564;DHT22;7883;52.554;13.364;2023-04-03T09:11:19;5.00;99.90
15564;DHT22;7883;52.554;13.364;2023-04-03T09:13:55;5.50;99.90
15564;DHT22;7883;52.554;13.364;2023-04-03T09:16:33;5.60;99.90
15564;DHT22;7883;52.554;13.364;2023-04-03T09:19:09;5.70;99.90
15564;DHT22;7883;52.554;13.364;2023-04-03T09:21:40;5.80;99.90
15564;DHT22;7883;52.554;13.364;2023-04-03T09:24:09;5.80;99.90
15564;DHT22;7883;52.554;13.364;2023-04-03T09:26:42;6.00;99.90
15564;DHT22;7883;52.554;13.364;2023-04-03T09:29:16;5.90;99.90
15564;DHT22;7883;52.554;13.364;2023-04-03T09:31:45;6.10;99.90
15564;DHT22;7883;52.554;13.364;2023-04-03T09:34:17;6.30;99.90
15564;DHT22;7883;52.554;13.364;2023-04-03T09:36:49;5.90;99.90
15564;DHT22;7883;52.554;13.364;2023-04-03T09:39:18;5.90;99.90
15564;DHT22;7883;52.554;13.364;2023-04-03T09:41:58;5.80;99.90
15564;DHT22;7883;52.554;13.364;2023-04-03T09:44:29;6.00;99.90
15564;DHT22;7883;52.554;13.364;2023-04-03T09:46:57;6.10;99.90
15564;DHT22;7883;52.554;13.364;2023-04-03T09:49:24;6.30;99.90
15564;DHT22;7883;52.554;13.364;2023-04-03T09:51:51;6.60;99.90
15564;DHT22;7883;52.554;13.364;2023-04-03T09:54:34;6.60;99.90
15564;DHT22;7883;52.554;13.364;2023-04-03T09:57:07;6.40;99.90
15564;DHT22;7883;52.554;13.364;2023-04-03T09:59:58;6.40;99.90
15564;DHT22;7883;52.554;13.364;2023-04-03T10:02:36;6.20;99.90
15564;DHT22;7883;52.554;13.364;2023-04-03T10:05:23;6.20;99.90
15564;DHT22;7883;52.554;13.364;2023-04-03T10:07:51;6.20;99.90
15564;DHT22;7883;52.554;13.364;2023-04-03T10:10:21;6.20;99.90
15564;DHT22;7883;52.554;13.364;2023-04-03T10:13:07;5.90;99.90
15564;DHT22;7883;52.554;13.364;2023-04-03T10:15:40;6.00;99.90
15564;DHT22;7883;52.554;13.364;2023-04-03T10:18:24;5.90;99.90
15564;DHT22;7883;52.554;13.364;2023-04-03T10:20:55;6.00;99.90
15564;DHT22;7883;52.554;13.364;2023-04-03T10:23:27;6.10;99.90
15564;DHT22;7883;52.554;13.364;2023-04-03T10:26:06;6.20;99.90
15564;DHT22;7883;52.554;13.364;2023-04-03T10:28:42;6.40;99.90
15564;DHT22;7883;52.554;13.364;2023-04-03T10:31:20;6.30;99.90
15564;DHT22;7883;52.554;13.364;2023-04-03T10:33:59;6.40;99.90
15564;DHT22;7883;52.554;13.364;2023-04-03T10:36:36;6.40;99.90
15564;DHT22;7883;52.554;13.364;2023-04-03T10:39:15;6.80;99.90
15564;DHT22;7883;52.554;13.364;2023-04-03T10:41:52;6.70;99.90
15564;DHT22;7883;52.554;13.364;2023-04-03T10:44:31;6.70;99.90
15564;DHT22;7883;52.554;13.364;2023-04-03T10:47:10;6.50;99.90
15564;DHT22;7883;52.554;13.364;2023-04-03T10:49:47;6.50;99.90
15564;DHT22;7883;52.554;13.364;2023-04-03T10:52:21;6.70;99.90
15564;DHT22;7883;52.554;13.364;2023-04-03T10:54:59;6.50;99.90
15564;DHT22;7883;52.554;13.364;2023-04-03T10:57:30;6.40;99.90
15564;DHT22;7883;52.554;13.364;2023-04-03T11:00:02;6.40;99.90
15564;DHT22;7883;52.554;13.364;2023-04-03T11:02:33;6.50;99.90
15564;DHT22;7883;52.554;13.364;2023-04-03T11:05:07;6.50;99.90
15564;DHT22;7883;52.554;13.364;2023-04-03T11:07:39;6.40;99.90
15564;DHT22;7883;52.554;13.364;2023-04-03T11:10:14;6.40;99.90
15564;DHT22;7883;52.554;13.364;2023-04-03T11:12:44;6.40;99.90
15564;DHT22;7883;52.554;13.364;2023-04-03T11:15:15;6.50;99.90
15564;DHT22;7883;52.554;13.364;2023-04-03T11:17:48;6.50;99.90
15564;DHT22;7883;52.554;13.364;2023-04-03T11:20:23;6.60;99.90
15564;DHT22;7883;52.554;13.364;2023-04-03T11:22:57;6.60;99.90
15564;DHT22;7883;52.554;13.364;2023-04-03T11:25:26;6.40;99.90
15564;DHT22;7883;52.554;13.364;2023-04-03T11:27:56;6.30;99.90
15564;DHT22;7883;52.554;13.364;2023-04-03T11:30:28;6.40;99.90
15564;DHT22;7883;52.554;13.364;2023-04-03T11:33:27;6.20;99.90
15564;DHT22;7883;52.554;13.364;2023-04-03T11:35:58;6.10;99.90
15564;DHT22;7883;52.554;13.364;2023-04-03T11:38:29;6.20;99.90
15564;DHT22;7883;52.554;13.364;2023-04-03T11:41:00;6.40;99.90
15564;DHT22;7883;52.554;13.364;2023-04-03T11:43:29;6.40;99.90
15564;DHT22;7883;52.554;13.364;2023-04-03T11:45:58;6.40;99.90
15564;DHT22;7883;52.554;13.364;2023-04-03T11:48:51;6.40;99.90
15564;DHT22;7883;52.554;13.364;2023-04-03T11:51:44;6.20;99.90
15564;DHT22;7883;52.554;13.364;2023-04-03T11:54:46;6.20;99.90
15564;DHT22;7883;52.554;13.364;2023-04-03T11:58:02;6.20;99.90
15564;DHT22;7883;52.554;13.364;2023-04-03T12:00:58;6.20;99.90
15564;DHT22;7883;52.554;13.364;2023-04-03T12:06:53;6.00;99.90
15564;DHT22;7883;52.554;13.364;2023-04-03T12:09:34;6.00;99.90
15564;DHT22;7883;52.554;13.364;2023-04-03T12:12:35;6.00;99.90
15564;DHT22;7883;52.554;13.364;2023-04-03T12:15:25;5.90;99.90
15564;DHT22;7883;52.554;13.364;2023-04-03T12:17:52;6.00;99.90
15564;DHT22;7883;52.554;13.364;2023-04-03T12:20:55;6.00;99.90
15564;DHT22;7883;52.554;13.364;2023-04-03T12:23:32;6.10;99.90
15564;DHT22;7883;52.554;13.364;2023-04-03T12:26:05;6.30;99.90
15564;DHT22;7883;52.554;13.364;2023-04-03T12:28:48;6.20;99.90
15564;DHT22;7883;52.554;13.364;2023-04-03T12:31:17;6.00;99.90
15564;DHT22;7883;52.554;13.364;2023-04-03T12:34:01;5.90;99.90
15564;DHT22;7883;52.554;13.364;2023-04-03T12:36:42;6.00;99.90
15564;DHT22;7883;52.554;13.364;2023-04-03T12:39:33;6.10;99.90
15564;DHT22;7883;52.554;13.364;2023-04-03T12:44:57;6.00;99.90
15564;DHT22;7883;52.554;13.364;2023-04-03T12:47:31;6.40;99.90
15564;DHT22;7883;52.554;13.364;2023-04-03T12:50:03;6.40;99.90
15564;DHT22;7883;52.554;13.364;2023-04-03T12:52:38;6.30;99.90
15564;DHT22;7883;52.554;13.364;2023-04-03T12:55:16;6.20;99.90
15564;DHT22;7883;52.554;13.364;2023-04-03T12:57:45;6.20;99.90
15564;DHT22;7883;52.554;13.364;2023-04-03T13:00:28;6.10;99.90
15564;DHT22;7883;52.554;13.364;2023-04-03T13:02:56;6.10;99.90
15564;DHT22;7883;52.554;13.364;2023-04-03T13:05:24;6.10;99.90
15564;DHT22;7883;52.554;13.364;2023-04-03T13:07:58;6.10;99.90
15564;DHT22;7883;52.554;13.364;2023-04-03T13:10:28;6.20;99.90
15564;DHT22;7883;52.554;13.364;2023-04-03T13:13:07;6.10;99.90
15564;DHT22;7883;52.554;13.364;2023-04-03T13:15:41;6.10;99.90
15564;DHT22;7883;52.554;13.364;2023-04-03T13:18:25;5.90;99.90
15564;DHT22;7883;52.554;13.364;2023-04-03T13:20:54;6.00;99.90
15564;DHT22;7883;52.554;13.364;2023-04-03T13:23:23;6.00;99.90
15564;DHT22;7883;52.554;13.364;2023-04-03T13:25:52;6.00;99.90
15564;DHT22;7883;52.554;13.364;2023-04-03T13:28:22;5.90;99.90
15564;DHT22;7883;52.554;13.364;2023-04-03T13:31:08;5.90;99.90
15564;DHT22;7883;52.554;13.364;2023-04-03T13:33:37;5.90;99.90
15564;DHT22;7883;52.554;13.364;2023-04-03T13:36:07;5.90;99.90
15564;DHT22;7883;52.554;13.364;2023-04-03T13:38:35;6.00;99.90
15564;DHT22;7883;52.554;13.364;2023-04-03T13:41:23;5.80;99.90
15564;DHT22;7883;52.554;13.364;2023-04-03T13:43:50;5.90;99.90
15564;DHT22;7883;52.554;13.364;2023-04-03T13:46:25;6.00;99.90
15564;DHT22;7883;52.554;13.364;2023-04-03T13:48:54;5.90;99.90
15564;DHT22;7883;52.554;13.364;2023-04-03T13:51:24;6.00;99.90
15564;DHT22;7883;52.554;13.364;2023-04-03T13:53:57;5.90;99.90
15564;DHT22;7883;52.554;13.364;2023-04-03T13:56:30;5.90;99.90
15564;DHT22;7883;52.554;13.364;2023-04-03T13:59:06;5.90;99.90
15564;DHT22;7883;52.554;13.364;2023-04-03T14:01:49;6.00;99.90
15564;DHT22;7883;52.554;13.364;2023-04-03T14:04:19;6.00;99.90
15564;DHT22;7883;52.554;13.364;2023-04-03T14:06:47;6.10;99.90
15564;DHT22;7883;52.554;13.364;2023-04-03T14:09:16;6.00;99.90
15564;DHT22;7883;52.554;13.364;2023-04-03T14:11:46;6.00;99.90
15564;DHT22;7883;52.554;13.364;2023-04-03T14:14:16;5.90;99.90
15564;DHT22;7883;52.554;13.364;2023-04-03T14:16:47;6.00;99.90
15564;DHT22;7883;52.554;13.364;2023-04-03T14:19:19;6.00;99.90
15564;DHT22;7883;52.554;13.364;2023-04-03T14:21:47;6.10;99.90
15564;DHT22;7883;52.554;13.364;2023-04-03T14:24:14;6.10;99.90
15564;DHT22;7883;52.554;13.364;2023-04-03T14:26:42;6.00;99.90
15564;DHT22;7883;52.554;13.364;2023-04-03T14:29:12;6.00;99.90
15564;DHT22;7883;52.554;13.364;2023-04-03T14:31:39;6.00;99.90
15564;DHT22;7883;52.554;13.364;2023-04-03T14:34:06;6.00;99.90
15564;DHT22;7883;52.554;13.364;2023-04-03T14:36:35;6.10;99.90
15564;DHT22;7883;52.554;13.364;2023-04-03T14:39:03;6.30;99.90
15564;DHT22;7883;52.554;13.364;2023-04-03T14:41:32;6.40;99.90
15564;DHT22;7883;52.554;13.364;2023-04-03T14:43:59;6.50;99.90
15564;DHT22;7883;52.554;13.364;2023-04-03T14:46:30;6.30;99.90
15564;DHT22;7883;52.554;13.364;2023-04-03T14:48:58;6.10;99.90
15564;DHT22;7883;52.554;13.364;2023-04-03T14:51:25;5.90;99.90
15564;DHT22;7883;52.554;13.364;2023-04-03T14:53:54;5.80;99.90
15564;DHT22;7883;52.554;13.364;2023-04-03T14:56:23;5.80;99.90
15564;DHT22;7883;52.554;13.364;2023-04-03T14:58:55;5.80;99.90
15564;DHT22;7883;52.554;13.364;2023-04-03T15:01:22;5.80;99.90
15564;DHT22;7883;52.554;13.364;2023-04-03T15:03:51;5.60;99.90
15564;DHT22;7883;52.554;13.364;2023-04-03T15:06:18;5.60;99.90
15564;DHT22;7883;52.554;13.364;2023-04-03T15:08:46;5.60;99.90
15564;DHT22;7883;52.554;13.364;2023-04-03T15:11:14;5.60;99.90
15564;DHT22;7883;52.554;13.364;2023-04-03T15:13:43;5.60;99.90
15564;DHT22;7883;52.554;13.364;2023-04-03T15:16:15;5.50;99.90
15564;DHT22;7883;52.554;13.364;2023-04-03T15:18:42;5.50;99.90
15564;DHT22;7883;52.554;13.364;2023-04-03T15:21:11;5.50;99.90
15564;DHT22;7883;52.554;13.364;2023-04-03T15:23:38;5.40;99.90
15564;DHT22;7883;52.554;13.364;2023-04-03T15:26:05;5.50;99.90
15564;DHT22;7883;52.554;13.364;2023-04-03T15:28:34;5.50;99.90
15564;DHT22;7883;52.554;13.364;2023-04-03T15:31:02;5.30;99.90
15564;DHT22;7883;52.554;13.364;2023-04-03T15:33:29;5.50;99.90
15564;DHT22;7883;52.554;13.364;2023-04-03T15:35:56;5.50;99.90
15564;DHT22;7883;52.554;13.364;2023-04-03T15:38:25;5.40;99.90
15564;DHT22;7883;52.554;13.364;2023-04-03T15:40:52;5.50;99.90
15564;DHT22;7883;52.554;13.364;2023-04-03T15:43:20;5.50;99.90
15564;DHT22;7883;52.554;13.364;2023-04-03T15:45:47;5.60;99.90
15564;DHT22;7883;52.554;13.364;2023-04-03T15:48:14;5.60;99.90
15564;DHT22;7883;52.554;13.364;2023-04-03T15:50:41;5.60;99.90
15564;DHT22;7883;52.554;13.364;2023-04-03T15:53:09;5.50;99.90
15564;DHT22;7883;52.554;13.364;2023-04-03T15:55:38;5.50;99.90
15564;DHT22;7883;52.554;13.364;2023-04-03T15:58:05;5.50;99.90
15564;DHT22;7883;52.554;13.364;2023-04-03T16:00:32;5.40;99.90
15564;DHT22;7883;52.554;13.364;2023-04-03T16:03:00;5.30;99.90
15564;DHT22;7883;52.554;13.364;2023-04-03T16:05:30;5.30;99.90
15564;DHT22;7883;52.554;13.364;2023-04-03T16:07:58;5.30;99.90
15564;DHT22;7883;52.554;13.364;2023-04-03T16:10:26;5.30;99.90
15564;DHT22;7883;52.554;13.364;2023-04-03T16:12:54;5.30;99.90
15564;DHT22;7883;52.554;13.364;2023-04-03T16:15:22;5.30;99.90